sensor_id;sensor_type;location;lat;lon;timestamp;P1;durP1;ratioP1;P2;durP2;ratioP2
15159;SDS011;7680;48.800;9.680;2023-06-26T00:00:06;10.60;;;9.60;;
15159;SDS011;7680;48.800;9.680;2023-06-26T00:02:44;10.23;;;9.30;;
15159;SDS011;7680;48.800;9.680;2023-06-26T00:05:17;10.38;;;9.40;;
15159;SDS011;7680;48.800;9.680;2023-06-26T00:07:50;10.38;;;9.38;;
15159;SDS011;7680;48.800;9.680;2023-06-26T00:10:24;9.18;;;8.38;;
15159;SDS011;7680;48.800;9.680;2023-06-26T00:12:57;10.75;;;9.75;;
15159;SDS011;7680;48.800;9.680;2023-06-26T00:15:31;10.00;;;9.10;;
15159;SDS011;7680;48.800;9.680;2023-06-26T00:18:04;9.85;;;8.93;;
15159;SDS011;7680;48.800;9.680;2023-06-26T00:20:38;10.35;;;9.45;;
15159;SDS011;7680;48.800;9.680;2023-06-26T00:23:11;10.25;;;9.25;;
15159;SDS011;7680;48.800;9.680;2023-06-26T00:25:47;10.20;;;9.30;;
15159;SDS011;7680;48.800;9.680;2023-06-26T00:28:20;9.73;;;8.85;;
15159;SDS011;7680;48.800;9.680;2023-06-26T00:30:55;10.18;;;9.25;;
15159;SDS011;7680;48.800;9.680;2023-06-26T00:33:28;10.05;;;9.23;;
15159;SDS011;7680;48.800;9.680;2023-06-26T00:36:01;10.70;;;9.68;;
15159;SDS011;7680;48.800;9.680;2023-06-26T00:38:35;10.40;;;9.50;;
15159;SDS011;7680;48.800;9.680;2023-06-26T00:41:08;10.23;;;9.25;;
15159;SDS011;7680;48.800;9.680;2023-06-26T00:43:44;10.10;;;9.18;;
15159;SDS011;7680;48.800;9.680;2023-06-26T00:46:19;9.80;;;8.90;;
15159;SDS011;7680;48.800;9.680;2023-06-26T00:48:52;10.63;;;9.73;;
15159;SDS011;7680;48.800;9.680;2023-06-26T00:51:26;10.13;;;9.27;;
15159;SDS011;7680;48.800;9.680;2023-06-26T00:54:01;10.02;;;9.13;;
15159;SDS011;7680;48.800;9.680;2023-06-26T00:56:34;9.65;;;8.82;;
15159;SDS011;7680;48.800;9.680;2023-06-26T00:59:08;10.38;;;9.48;;
15159;SDS011;7680;48.800;9.680;2023-06-26T01:01:42;9.48;;;8.57;;
15159;SDS011;7680;48.800;9.680;2023-06-26T01:04:15;10.38;;;9.40;;
15159;SDS011;7680;48.800;9.680;2023-06-26T01:06:49;10.65;;;9.65;;
15159;SDS011;7680;48.800;9.680;2023-06-26T01:09:23;10.15;;;9.25;;
15159;SDS011;7680;48.800;9.680;2023-06-26T01:11:57;9.95;;;8.95;;
15159;SDS011;7680;48.800;9.680;2023-06-26T01:14:30;10.07;;;9.18;;
15159;SDS011;7680;48.800;9.680;2023-06-26T01:17:05;10.80;;;9.77;;
15159;SDS011;7680;48.800;9.680;2023-06-26T01:19:43;10.60;;;9.73;;
15159;SDS011;7680;48.800;9.680;2023-06-26T01:22:19;11.15;;;10.07;;
15159;SDS011;7680;48.800;9.680;2023-06-26T01:25:08;10.77;;;9.88;;
15159;SDS011;7680;48.800;9.680;2023-06-26T01:27:52;10.50;;;9.63;;
15159;SDS011;7680;48.800;9.680;2023-06-26T01:30:26;10.88;;;9.88;;
15159;SDS011;7680;48.800;9.680;2023-06-26T01:33:00;11.07;;;10.07;;
15159;SDS011;7680;48.800;9.680;2023-06-26T01:35:35;10.07;;;9.18;;
15159;SDS011;7680;48.800;9.680;2023-06-26T01:38:12;10.55;;;9.55;;
15159;SDS011;7680;48.800;9.680;2023-06-26T01:40:46;11.07;;;10.07;;
15159;SDS011;7680;48.800;9.680;2023-06-26T01:43:23;10.80;;;9.90;;
15159;SDS011;7680;48.800;9.680;2023-06-26T01:46:02;10.00;;;9.10;;
15159;SDS011;7680;48.800;9.680;2023-06-26T01:48:55;10.48;;;9.55;;
15159;SDS011;7680;48.800;9.680;2023-06-26T01:51:35;11.10;;;10.07;;
15159;SDS011;7680;48.800;9.680;2023-06-26T01:54:16;10.40;;;9.45;;
15159;SDS011;7680;48.800;9.680;2023-06-26T01:56:52;10.60;;;9.57;;
15159;SDS011;7680;48.800;9.680;2023-06-26T01:59:28;10.30;;;9.40;;
15159;SDS011;7680;48.800;9.680;2023-06-26T02:02:06;10.63;;;9.73;;
15159;SDS011;7680;48.800;9.680;2023-06-26T02:04:39;11.18;;;10.13;;
15159;SDS011;7680;48.800;9.680;2023-06-26T02:07:13;10.13;;;9.23;;
15159;SDS011;7680;48.800;9.680;2023-06-26T02:09:47;9.95;;;9.15;;
15159;SDS011;7680;48.800;9.680;2023-06-26T02:12:20;10.68;;;9.77;;
15159;SDS011;7680;48.800;9.680;2023-06-26T02:14:54;10.30;;;9.38;;
15159;SDS011;7680;48.800;9.680;2023-06-26T02:17:27;10.07;;;9.18;;
15159;SDS011;7680;48.800;9.680;2023-06-26T02:20:01;10.38;;;9.55;;
15159;SDS011;7680;48.800;9.680;2023-06-26T02:22:34;10.00;;;9.15;;
15159;SDS011;7680;48.800;9.680;2023-06-26T02:25:07;10.35;;;9.45;;
15159;SDS011;7680;48.800;9.680;2023-06-26T02:27:41;10.23;;;9.32;;
15159;SDS011;7680;48.800;9.680;2023-06-26T02:30:16;10.40;;;9.48;;
15159;SDS011;7680;48.800;9.680;2023-06-26T02:32:49;10.50;;;9.45;;
15159;SDS011;7680;48.800;9.680;2023-06-26T02:35:22;10.55;;;9.65;;
15159;SDS011;7680;48.800;9.680;2023-06-26T02:37:55;10.93;;;10.02;;
15159;SDS011;7680;48.800;9.680;2023-06-26T02:40:28;10.80;;;9.90;;
15159;SDS011;7680;48.800;9.680;2023-06-26T02:43:01;10.80;;;9.80;;
15159;SDS011;7680;48.800;9.680;2023-06-26T02:45:36;11.25;;;10.23;;
15159;SDS011;7680;48.800;9.680;2023-06-26T02:48:09;9.93;;;9.13;;
15159;SDS011;7680;48.800;9.680;2023-06-26T02:50:42;11.25;;;10.25;;
15159;SDS011;7680;48.800;9.680;2023-06-26T02:53:17;10.48;;;9.57;;
15159;SDS011;7680;48.800;9.680;2023-06-26T02:55:50;11.35;;;10.35;;
15159;SDS011;7680;48.800;9.680;2023-06-26T02:58:24;11.07;;;10.07;;
15159;SDS011;7680;48.800;9.680;2023-06-26T03:00:58;11.20;;;10.20;;
15159;SDS011;7680;48.800;9.680;2023-06-26T03:03:31;11.70;;;10.70;;
15159;SDS011;7680;48.800;9.680;2023-06-26T03:06:12;10.50;;;9.50;;
15159;SDS011;7680;48.800;9.680;2023-06-26T03:08:45;11.40;;;10.40;;
15159;SDS011;7680;48.800;9.680;2023-06-26T03:11:18;10.02;;;9.15;;
15159;SDS011;7680;48.800;9.680;2023-06-26T03:13:51;10.40;;;9.50;;
15159;SDS011;7680;48.800;9.680;2023-06-26T03:16:26;11.00;;;10.02;;
15159;SDS011;7680;48.800;9.680;2023-06-26T03:18:59;10.60;;;9.70;;
15159;SDS011;7680;48.800;9.680;2023-06-26T03:21:32;10.35;;;9.45;;
15159;SDS011;7680;48.800;9.680;2023-06-26T03:24:05;10.70;;;9.73;;
15159;SDS011;7680;48.800;9.680;2023-06-26T03:26:39;11.20;;;10.20;;
15159;SDS011;7680;48.800;9.680;2023-06-26T03:29:12;10.60;;;9.65;;
15159;SDS011;7680;48.800;9.680;2023-06-26T03:31:46;10.07;;;9.18;;
15159;SDS011;7680;48.800;9.680;2023-06-26T03:34:19;10.25;;;9.25;;
15159;SDS011;7680;48.800;9.680;2023-06-26T03:36:52;10.85;;;9.95;;
15159;SDS011;7680;48.800;9.680;2023-06-26T03:39:25;9.60;;;8.70;;
15159;SDS011;7680;48.800;9.680;2023-06-26T03:41:59;10.55;;;9.48;;
15159;SDS011;7680;48.800;9.680;2023-06-26T03:44:32;10.35;;;9.45;;
15159;SDS011;7680;48.800;9.680;2023-06-26T03:47:07;10.75;;;9.75;;
15159;SDS011;7680;48.800;9.680;2023-06-26T03:49:40;11.30;;;10.20;;
15159;SDS011;7680;48.800;9.680;2023-06-26T03:52:13;10.52;;;9.63;;
15159;SDS011;7680;48.800;9.680;2023-06-26T03:54:46;11.07;;;10.07;;
15159;SDS011;7680;48.800;9.680;2023-06-26T03:57:20;10.23;;;9.32;;
15159;SDS011;7680;48.800;9.680;2023-06-26T03:59:53;10.40;;;9.50;;
15159;SDS011;7680;48.800;9.680;2023-06-26T04:02:27;10.45;;;9.55;;
15159;SDS011;7680;48.800;9.680;2023-06-26T04:05:00;11.55;;;10.55;;
15159;SDS011;7680;48.800;9.680;2023-06-26T04:07:34;11.20;;;10.10;;
15159;SDS011;7680;48.800;9.680;2023-06-26T04:10:09;10.80;;;9.90;;
15159;SDS011;7680;48.800;9.680;2023-06-26T04:12:43;9.95;;;9.05;;
15159;SDS011;7680;48.800;9.680;2023-06-26T04:15:16;10.40;;;9.32;;
15159;SDS011;7680;48.800;9.680;2023-06-26T04:17:50;10.35;;;9.45;;
15159;SDS011;7680;48.800;9.680;2023-06-26T04:20:23;10.93;;;9.98;;
15159;SDS011;7680;48.800;9.680;2023-06-26T04:22:56;9.95;;;9.05;;
15159;SDS011;7680;48.800;9.680;2023-06-26T04:25:30;12.10;;;10.90;;
15159;SDS011;7680;48.800;9.680;2023-06-26T04:28:04;11.13;;;10.10;;
15159;SDS011;7680;48.800;9.680;2023-06-26T04:30:37;11.10;;;10.10;;
15159;SDS011;7680;48.800;9.680;2023-06-26T04:33:12;11.40;;;10.30;;
15159;SDS011;7680;48.800;9.680;2023-06-26T04:35:46;11.48;;;10.43;;
15159;SDS011;7680;48.800;9.680;2023-06-26T04:38:20;10.82;;;9.85;;
15159;SDS011;7680;48.800;9.680;2023-06-26T04:40:54;12.05;;;10.82;;
15159;SDS011;7680;48.800;9.680;2023-06-26T04:43:27;10.65;;;9.70;;
15159;SDS011;7680;48.800;9.680;2023-06-26T04:46:01;10.15;;;9.30;;
15159;SDS011;7680;48.800;9.680;2023-06-26T04:48:36;9.68;;;8.82;;
15159;SDS011;7680;48.800;9.680;2023-06-26T04:51:09;10.75;;;9.75;;
15159;SDS011;7680;48.800;9.680;2023-06-26T04:53:42;10.00;;;9.00;;
15159;SDS011;7680;48.800;9.680;2023-06-26T04:56:15;10.77;;;9.85;;
15159;SDS011;7680;48.800;9.680;2023-06-26T04:58:49;10.60;;;9.60;;
15159;SDS011;7680;48.800;9.680;2023-06-26T05:01:22;9.65;;;8.85;;
15159;SDS011;7680;48.800;9.680;2023-06-26T05:03:56;9.88;;;8.98;;
15159;SDS011;7680;48.800;9.680;2023-06-26T05:06:29;8.90;;;8.10;;
15159;SDS011;7680;48.800;9.680;2023-06-26T05:09:03;9.48;;;8.60;;
15159;SDS011;7680;48.800;9.680;2023-06-26T05:11:36;9.85;;;8.95;;
15159;SDS011;7680;48.800;9.680;2023-06-26T05:14:09;9.77;;;8.88;;
15159;SDS011;7680;48.800;9.680;2023-06-26T05:16:43;10.05;;;9.07;;
15159;SDS011;7680;48.800;9.680;2023-06-26T05:19:18;9.27;;;8.48;;
15159;SDS011;7680;48.800;9.680;2023-06-26T05:21:51;9.23;;;8.32;;
15159;SDS011;7680;48.800;9.680;2023-06-26T05:24:25;9.55;;;8.68;;
15159;SDS011;7680;48.800;9.680;2023-06-26T05:26:59;9.32;;;8.57;;
15159;SDS011;7680;48.800;9.680;2023-06-26T05:29:33;9.52;;;8.73;;
15159;SDS011;7680;48.800;9.680;2023-06-26T05:32:09;9.73;;;8.93;;
15159;SDS011;7680;48.800;9.680;2023-06-26T05:34:44;8.68;;;7.97;;
15159;SDS011;7680;48.800;9.680;2023-06-26T05:37:20;8.93;;;8.13;;
15159;SDS011;7680;48.800;9.680;2023-06-26T05:39:54;11.13;;;10.23;;
15159;SDS011;7680;48.800;9.680;2023-06-26T05:42:29;10.07;;;9.27;;
15159;SDS011;7680;48.800;9.680;2023-06-26T05:45:02;9.65;;;8.85;;
15159;SDS011;7680;48.800;9.680;2023-06-26T05:47:36;9.82;;;9.00;;
15159;SDS011;7680;48.800;9.680;2023-06-26T05:50:12;9.55;;;8.77;;
15159;SDS011;7680;48.800;9.680;2023-06-26T05:52:46;9.27;;;8.55;;
15159;SDS011;7680;48.800;9.680;2023-06-26T05:55:21;10.18;;;9.38;;
15159;SDS011;7680;48.800;9.680;2023-06-26T05:57:55;9.20;;;8.32;;
15159;SDS011;7680;48.800;9.680;2023-06-26T06:00:31;8.88;;;8.05;;
15159;SDS011;7680;48.800;9.680;2023-06-26T06:03:05;9.02;;;8.32;;
15159;SDS011;7680;48.800;9.680;2023-06-26T06:05:39;9.73;;;8.88;;
15159;SDS011;7680;48.800;9.680;2023-06-26T06:08:12;9.75;;;8.85;;
15159;SDS011;7680;48.800;9.680;2023-06-26T06:10:46;9.63;;;8.75;;
15159;SDS011;7680;48.800;9.680;2023-06-26T06:13:19;9.02;;;8.32;;
15159;SDS011;7680;48.800;9.680;2023-06-26T06:15:52;10.07;;;9.27;;
15159;SDS011;7680;48.800;9.680;2023-06-26T06:18:26;10.02;;;9.13;;
15159;SDS011;7680;48.800;9.680;2023-06-26T06:21:00;9.48;;;8.73;;
15159;SDS011;7680;48.800;9.680;2023-06-26T06:23:33;9.25;;;8.45;;
15159;SDS011;7680;48.800;9.680;2023-06-26T06:26:06;9.30;;;8.60;;
15159;SDS011;7680;48.800;9.680;2023-06-26T06:28:39;9.98;;;8.98;;
15159;SDS011;7680;48.800;9.680;2023-06-26T06:31:13;9.95;;;9.05;;
15159;SDS011;7680;48.800;9.680;2023-06-26T06:33:46;9.90;;;9.10;;
15159;SDS011;7680;48.800;9.680;2023-06-26T06:36:21;9.27;;;8.48;;
15159;SDS011;7680;48.800;9.680;2023-06-26T06:38:54;9.20;;;8.50;;
15159;SDS011;7680;48.800;9.680;2023-06-26T06:41:27;9.35;;;8.65;;
15159;SDS011;7680;48.800;9.680;2023-06-26T06:44:00;9.95;;;9.05;;
15159;SDS011;7680;48.800;9.680;2023-06-26T06:46:33;9.90;;;9.13;;
15159;SDS011;7680;48.800;9.680;2023-06-26T06:49:07;9.57;;;8.88;;
15159;SDS011;7680;48.800;9.680;2023-06-26T06:51:42;9.70;;;8.90;;
15159;SDS011;7680;48.800;9.680;2023-06-26T06:54:15;9.10;;;8.35;;
15159;SDS011;7680;48.800;9.680;2023-06-26T06:56:49;9.50;;;8.80;;
15159;SDS011;7680;48.800;9.680;2023-06-26T06:59:22;8.30;;;7.60;;
15159;SDS011;7680;48.800;9.680;2023-06-26T07:01:55;8.55;;;7.90;;
15159;SDS011;7680;48.800;9.680;2023-06-26T07:04:28;8.45;;;7.78;;
15159;SDS011;7680;48.800;9.680;2023-06-26T07:07:03;9.15;;;8.35;;
15159;SDS011;7680;48.800;9.680;2023-06-26T07:09:37;8.25;;;7.55;;
15159;SDS011;7680;48.800;9.680;2023-06-26T07:12:10;8.20;;;7.60;;
15159;SDS011;7680;48.800;9.680;2023-06-26T07:14:44;8.07;;;7.30;;
15159;SDS011;7680;48.800;9.680;2023-06-26T07:17:17;8.20;;;7.55;;
15159;SDS011;7680;48.800;9.680;2023-06-26T07:19:50;8.00;;;7.30;;
15159;SDS011;7680;48.800;9.680;2023-06-26T07:22:24;8.25;;;7.55;;
15159;SDS011;7680;48.800;9.680;2023-06-26T07:24:57;8.23;;;7.57;;
15159;SDS011;7680;48.800;9.680;2023-06-26T07:27:31;8.32;;;7.65;;
15159;SDS011;7680;48.800;9.680;2023-06-26T07:30:05;7.70;;;7.10;;
15159;SDS011;7680;48.800;9.680;2023-06-26T07:32:40;7.50;;;7.00;;
15159;SDS011;7680;48.800;9.680;2023-06-26T07:35:14;7.45;;;6.85;;
15159;SDS011;7680;48.800;9.680;2023-06-26T07:37:49;7.72;;;7.13;;
15159;SDS011;7680;48.800;9.680;2023-06-26T07:40:22;8.60;;;7.95;;
15159;SDS011;7680;48.800;9.680;2023-06-26T07:42:55;7.88;;;7.28;;
15159;SDS011;7680;48.800;9.680;2023-06-26T07:45:29;7.60;;;7.07;;
15159;SDS011;7680;48.800;9.680;2023-06-26T07:48:02;7.53;;;6.93;;
15159;SDS011;7680;48.800;9.680;2023-06-26T07:50:36;8.15;;;7.47;;
15159;SDS011;7680;48.800;9.680;2023-06-26T07:53:11;7.72;;;7.03;;
15159;SDS011;7680;48.800;9.680;2023-06-26T07:55:44;7.53;;;6.88;;
15159;SDS011;7680;48.800;9.680;2023-06-26T07:58:17;7.10;;;6.60;;
15159;SDS011;7680;48.800;9.680;2023-06-26T08:00:50;8.02;;;7.43;;
15159;SDS011;7680;48.800;9.680;2023-06-26T08:03:23;8.02;;;7.32;;
15159;SDS011;7680;48.800;9.680;2023-06-26T08:06:06;7.82;;;7.20;;
15159;SDS011;7680;48.800;9.680;2023-06-26T08:08:44;7.55;;;6.95;;
15159;SDS011;7680;48.800;9.680;2023-06-26T08:11:17;8.02;;;7.40;;
15159;SDS011;7680;48.800;9.680;2023-06-26T08:13:50;8.35;;;7.70;;
15159;SDS011;7680;48.800;9.680;2023-06-26T08:16:23;7.60;;;7.00;;
15159;SDS011;7680;48.800;9.680;2023-06-26T08:18:56;7.55;;;7.05;;
15159;SDS011;7680;48.800;9.680;2023-06-26T08:21:29;7.30;;;6.70;;
15159;SDS011;7680;48.800;9.680;2023-06-26T08:24:04;7.85;;;7.18;;
15159;SDS011;7680;48.800;9.680;2023-06-26T08:26:37;6.95;;;6.45;;
15159;SDS011;7680;48.800;9.680;2023-06-26T08:29:11;7.55;;;7.05;;
15159;SDS011;7680;48.800;9.680;2023-06-26T08:31:44;7.78;;;7.18;;
15159;SDS011;7680;48.800;9.680;2023-06-26T08:34:17;7.85;;;7.25;;
15159;SDS011;7680;48.800;9.680;2023-06-26T08:36:50;7.00;;;6.50;;
15159;SDS011;7680;48.800;9.680;2023-06-26T08:39:25;8.25;;;7.53;;
15159;SDS011;7680;48.800;9.680;2023-06-26T08:41:59;7.72;;;7.13;;
15159;SDS011;7680;48.800;9.680;2023-06-26T08:44:32;7.55;;;6.95;;
15159;SDS011;7680;48.800;9.680;2023-06-26T08:47:06;8.30;;;7.63;;
15159;SDS011;7680;48.800;9.680;2023-06-26T08:49:42;7.47;;;6.90;;
15159;SDS011;7680;48.800;9.680;2023-06-26T08:52:22;7.90;;;7.20;;
15159;SDS011;7680;48.800;9.680;2023-06-26T08:55:00;7.72;;;7.05;;
15159;SDS011;7680;48.800;9.680;2023-06-26T08:57:39;7.57;;;7.05;;
15159;SDS011;7680;48.800;9.680;2023-06-26T09:00:14;8.02;;;7.43;;
15159;SDS011;7680;48.800;9.680;2023-06-26T09:02:49;7.93;;;7.15;;
15159;SDS011;7680;48.800;9.680;2023-06-26T09:05:22;7.45;;;6.85;;
15159;SDS011;7680;48.800;9.680;2023-06-26T09:07:55;7.50;;;6.88;;
15159;SDS011;7680;48.800;9.680;2023-06-26T09:10:31;7.53;;;6.93;;
15159;SDS011;7680;48.800;9.680;2023-06-26T09:13:04;7.57;;;6.97;;
15159;SDS011;7680;48.800;9.680;2023-06-26T09:15:54;7.15;;;6.68;;
15159;SDS011;7680;48.800;9.680;2023-06-26T09:18:28;7.38;;;6.78;;
15159;SDS011;7680;48.800;9.680;2023-06-26T09:21:05;7.35;;;6.38;;
15159;SDS011;7680;48.800;9.680;2023-06-26T09:23:40;7.57;;;6.97;;
15159;SDS011;7680;48.800;9.680;2023-06-26T09:26:15;6.80;;;6.32;;
15159;SDS011;7680;48.800;9.680;2023-06-26T09:28:49;7.88;;;7.07;;
15159;SDS011;7680;48.800;9.680;2023-06-26T09:31:24;6.43;;;6.00;;
15159;SDS011;7680;48.800;9.680;2023-06-26T09:34:12;6.03;;;5.53;;
15159;SDS011;7680;48.800;9.680;2023-06-26T09:36:45;6.50;;;5.90;;
15159;SDS011;7680;48.800;9.680;2023-06-26T09:39:20;6.22;;;5.72;;
15159;SDS011;7680;48.800;9.680;2023-06-26T09:41:54;6.28;;;5.88;;
15159;SDS011;7680;48.800;9.680;2023-06-26T09:44:28;6.32;;;5.85;;
15159;SDS011;7680;48.800;9.680;2023-06-26T09:47:03;6.60;;;6.10;;
15159;SDS011;7680;48.800;9.680;2023-06-26T09:49:38;6.55;;;6.05;;
15159;SDS011;7680;48.800;9.680;2023-06-26T09:52:14;6.88;;;6.38;;
15159;SDS011;7680;48.800;9.680;2023-06-26T09:54:48;6.95;;;6.45;;
15159;SDS011;7680;48.800;9.680;2023-06-26T09:57:23;7.28;;;6.78;;
15159;SDS011;7680;48.800;9.680;2023-06-26T09:59:56;7.47;;;6.88;;
15159;SDS011;7680;48.800;9.680;2023-06-26T10:02:29;6.75;;;6.25;;
15159;SDS011;7680;48.800;9.680;2023-06-26T10:05:03;6.85;;;6.35;;
15159;SDS011;7680;48.800;9.680;2023-06-26T10:07:36;6.10;;;5.60;;
15159;SDS011;7680;48.800;9.680;2023-06-26T10:10:10;7.22;;;6.53;;
15159;SDS011;7680;48.800;9.680;2023-06-26T10:12:47;7.30;;;6.65;;
15159;SDS011;7680;48.800;9.680;2023-06-26T10:15:22;6.78;;;6.20;;
15159;SDS011;7680;48.800;9.680;2023-06-26T10:17:57;6.85;;;6.35;;
15159;SDS011;7680;48.800;9.680;2023-06-26T10:20:30;6.78;;;6.20;;
15159;SDS011;7680;48.800;9.680;2023-06-26T10:23:04;6.45;;;6.05;;
15159;SDS011;7680;48.800;9.680;2023-06-26T10:25:40;6.95;;;6.38;;
15159;SDS011;7680;48.800;9.680;2023-06-26T10:28:18;7.40;;;6.80;;
15159;SDS011;7680;48.800;9.680;2023-06-26T10:30:53;6.55;;;6.05;;
15159;SDS011;7680;48.800;9.680;2023-06-26T10:33:27;6.70;;;6.13;;
15159;SDS011;7680;48.800;9.680;2023-06-26T10:36:14;7.53;;;6.70;;
15159;SDS011;7680;48.800;9.680;2023-06-26T10:38:50;7.68;;;6.97;;
15159;SDS011;7680;48.800;9.680;2023-06-26T10:41:25;8.23;;;6.75;;
15159;SDS011;7680;48.800;9.680;2023-06-26T10:44:10;7.38;;;6.75;;
15159;SDS011;7680;48.800;9.680;2023-06-26T10:46:50;7.32;;;6.75;;
15159;SDS011;7680;48.800;9.680;2023-06-26T10:49:25;7.38;;;6.78;;
15159;SDS011;7680;48.800;9.680;2023-06-26T10:52:01;6.53;;;6.03;;
15159;SDS011;7680;48.800;9.680;2023-06-26T10:54:35;7.18;;;6.47;;
15159;SDS011;7680;48.800;9.680;2023-06-26T10:57:10;7.72;;;7.03;;
15159;SDS011;7680;48.800;9.680;2023-06-26T10:59:44;6.80;;;6.30;;
15159;SDS011;7680;48.800;9.680;2023-06-26T11:02:17;7.82;;;6.97;;
15159;SDS011;7680;48.800;9.680;2023-06-26T11:04:51;7.47;;;6.85;;
15159;SDS011;7680;48.800;9.680;2023-06-26T11:07:25;7.18;;;6.57;;
15159;SDS011;7680;48.800;9.680;2023-06-26T11:09:59;6.75;;;6.28;;
15159;SDS011;7680;48.800;9.680;2023-06-26T11:12:35;7.07;;;6.47;;
15159;SDS011;7680;48.800;9.680;2023-06-26T11:15:15;7.28;;;6.57;;
15159;SDS011;7680;48.800;9.680;2023-06-26T11:17:49;6.60;;;6.20;;
15159;SDS011;7680;48.800;9.680;2023-06-26T11:20:23;6.72;;;6.18;;
15159;SDS011;7680;48.800;9.680;2023-06-26T11:22:56;7.15;;;6.55;;
15159;SDS011;7680;48.800;9.680;2023-06-26T11:25:29;7.68;;;6.97;;
15159;SDS011;7680;48.800;9.680;2023-06-26T11:28:09;7.03;;;6.47;;
15159;SDS011;7680;48.800;9.680;2023-06-26T11:30:44;7.35;;;6.85;;
15159;SDS011;7680;48.800;9.680;2023-06-26T11:33:17;6.95;;;6.38;;
15159;SDS011;7680;48.800;9.680;2023-06-26T11:35:51;7.38;;;6.72;;
15159;SDS011;7680;48.800;9.680;2023-06-26T11:38:24;7.82;;;6.70;;
15159;SDS011;7680;48.800;9.680;2023-06-26T11:40:57;7.32;;;6.72;;
15159;SDS011;7680;48.800;9.680;2023-06-26T11:43:32;8.07;;;7.28;;
15159;SDS011;7680;48.800;9.680;2023-06-26T11:46:08;7.40;;;6.80;;
15159;SDS011;7680;48.800;9.680;2023-06-26T11:48:41;7.82;;;7.22;;
15159;SDS011;7680;48.800;9.680;2023-06-26T11:51:15;8.05;;;7.35;;
15159;SDS011;7680;48.800;9.680;2023-06-26T11:53:48;7.53;;;6.93;;
15159;SDS011;7680;48.800;9.680;2023-06-26T11:56:22;8.60;;;7.70;;
15159;SDS011;7680;48.800;9.680;2023-06-26T11:58:57;8.93;;;8.23;;
15159;SDS011;7680;48.800;9.680;2023-06-26T12:01:35;8.32;;;7.53;;
15159;SDS011;7680;48.800;9.680;2023-06-26T12:04:10;9.27;;;7.95;;
15159;SDS011;7680;48.800;9.680;2023-06-26T12:06:45;9.00;;;8.20;;
15159;SDS011;7680;48.800;9.680;2023-06-26T12:09:21;8.48;;;7.28;;
15159;SDS011;7680;48.800;9.680;2023-06-26T12:11:55;7.55;;;7.05;;
15159;SDS011;7680;48.800;9.680;2023-06-26T12:14:29;8.40;;;7.60;;
15159;SDS011;7680;48.800;9.680;2023-06-26T12:17:08;8.43;;;7.72;;
15159;SDS011;7680;48.800;9.680;2023-06-26T12:19:43;9.57;;;8.77;;
15159;SDS011;7680;48.800;9.680;2023-06-26T12:22:19;9.23;;;8.43;;
15159;SDS011;7680;48.800;9.680;2023-06-26T12:24:52;8.30;;;7.60;;
15159;SDS011;7680;48.800;9.680;2023-06-26T12:27:29;8.35;;;7.65;;
15159;SDS011;7680;48.800;9.680;2023-06-26T12:30:03;8.55;;;7.90;;
15159;SDS011;7680;48.800;9.680;2023-06-26T12:32:40;9.77;;;8.40;;
15159;SDS011;7680;48.800;9.680;2023-06-26T12:35:17;7.82;;;7.18;;
15159;SDS011;7680;48.800;9.680;2023-06-26T12:37:50;8.35;;;7.63;;
15159;SDS011;7680;48.800;9.680;2023-06-26T12:40:23;8.88;;;8.18;;
15159;SDS011;7680;48.800;9.680;2023-06-26T12:42:57;8.48;;;7.65;;
15159;SDS011;7680;48.800;9.680;2023-06-26T12:45:37;8.45;;;7.75;;
15159;SDS011;7680;48.800;9.680;2023-06-26T12:48:13;9.38;;;8.38;;
15159;SDS011;7680;48.800;9.680;2023-06-26T12:50:48;7.63;;;7.00;;
15159;SDS011;7680;48.800;9.680;2023-06-26T12:53:21;8.35;;;7.55;;
15159;SDS011;7680;48.800;9.680;2023-06-26T12:55:54;8.60;;;7.78;;
15159;SDS011;7680;48.800;9.680;2023-06-26T12:58:28;8.40;;;7.65;;
15159;SDS011;7680;48.800;9.680;2023-06-26T13:01:02;8.38;;;7.57;;
15159;SDS011;7680;48.800;9.680;2023-06-26T13:03:47;8.85;;;7.80;;
15159;SDS011;7680;48.800;9.680;2023-06-26T13:06:21;8.43;;;7.63;;
15159;SDS011;7680;48.800;9.680;2023-06-26T13:08:54;8.57;;;7.85;;
15159;SDS011;7680;48.800;9.680;2023-06-26T13:11:27;9.20;;;7.68;;
15159;SDS011;7680;48.800;9.680;2023-06-26T13:14:00;8.65;;;7.97;;
15159;SDS011;7680;48.800;9.680;2023-06-26T13:16:41;8.93;;;7.95;;
15159;SDS011;7680;48.800;9.680;2023-06-26T13:19:16;8.65;;;7.93;;
15159;SDS011;7680;48.800;9.680;2023-06-26T13:21:49;8.35;;;7.65;;
15159;SDS011;7680;48.800;9.680;2023-06-26T13:24:22;9.25;;;7.97;;
15159;SDS011;7680;48.800;9.680;2023-06-26T13:26:56;8.93;;;8.02;;
15159;SDS011;7680;48.800;9.680;2023-06-26T13:29:29;8.77;;;7.50;;
15159;SDS011;7680;48.800;9.680;2023-06-26T13:32:04;8.40;;;7.80;;
15159;SDS011;7680;48.800;9.680;2023-06-26T13:34:39;8.55;;;7.85;;
15159;SDS011;7680;48.800;9.680;2023-06-26T13:37:13;8.95;;;8.05;;
15159;SDS011;7680;48.800;9.680;2023-06-26T13:39:46;8.60;;;7.90;;
15159;SDS011;7680;48.800;9.680;2023-06-26T13:42:21;9.07;;;8.27;;
15159;SDS011;7680;48.800;9.680;2023-06-26T13:44:54;8.65;;;7.97;;
15159;SDS011;7680;48.800;9.680;2023-06-26T13:47:36;8.50;;;7.68;;
15159;SDS011;7680;48.800;9.680;2023-06-26T13:50:13;8.60;;;7.75;;
15159;SDS011;7680;48.800;9.680;2023-06-26T13:52:47;9.23;;;8.27;;
15159;SDS011;7680;48.800;9.680;2023-06-26T13:55:20;8.30;;;7.60;;
15159;SDS011;7680;48.800;9.680;2023-06-26T13:57:54;9.20;;;8.38;;
15159;SDS011;7680;48.800;9.680;2023-06-26T14:00:27;8.82;;;7.70;;
15159;SDS011;7680;48.800;9.680;2023-06-26T14:03:01;8.55;;;7.85;;
15159;SDS011;7680;48.800;9.680;2023-06-26T14:05:37;8.05;;;7.25;;
15159;SDS011;7680;48.800;9.680;2023-06-26T14:08:13;7.82;;;7.20;;
15159;SDS011;7680;48.800;9.680;2023-06-26T14:10:46;9.07;;;8.25;;
15159;SDS011;7680;48.800;9.680;2023-06-26T14:13:19;7.88;;;7.05;;
15159;SDS011;7680;48.800;9.680;2023-06-26T14:15:54;8.52;;;7.53;;
15159;SDS011;7680;48.800;9.680;2023-06-26T14:18:27;7.78;;;7.07;;
15159;SDS011;7680;48.800;9.680;2023-06-26T14:21:02;8.13;;;7.43;;
15159;SDS011;7680;48.800;9.680;2023-06-26T14:23:35;7.53;;;6.82;;
15159;SDS011;7680;48.800;9.680;2023-06-26T14:26:08;8.32;;;7.53;;
15159;SDS011;7680;48.800;9.680;2023-06-26T14:28:42;9.10;;;6.45;;
15159;SDS011;7680;48.800;9.680;2023-06-26T14:31:16;7.07;;;6.47;;
15159;SDS011;7680;48.800;9.680;2023-06-26T14:33:49;8.32;;;6.97;;
15159;SDS011;7680;48.800;9.680;2023-06-26T14:36:24;7.53;;;6.85;;
15159;SDS011;7680;48.800;9.680;2023-06-26T14:38:59;7.28;;;6.55;;
15159;SDS011;7680;48.800;9.680;2023-06-26T14:41:32;7.40;;;6.80;;
15159;SDS011;7680;48.800;9.680;2023-06-26T14:44:06;7.32;;;6.35;;
15159;SDS011;7680;48.800;9.680;2023-06-26T14:46:41;6.30;;;5.80;;
15159;SDS011;7680;48.800;9.680;2023-06-26T14:49:15;6.93;;;6.32;;
15159;SDS011;7680;48.800;9.680;2023-06-26T14:51:49;6.63;;;5.90;;
15159;SDS011;7680;48.800;9.680;2023-06-26T14:54:22;6.80;;;5.40;;
15159;SDS011;7680;48.800;9.680;2023-06-26T14:56:56;6.18;;;5.68;;
15159;SDS011;7680;48.800;9.680;2023-06-26T14:59:29;6.35;;;5.70;;
15159;SDS011;7680;48.800;9.680;2023-06-26T15:02:02;5.82;;;5.32;;
15159;SDS011;7680;48.800;9.680;2023-06-26T15:04:36;6.05;;;5.30;;
15159;SDS011;7680;48.800;9.680;2023-06-26T15:07:10;5.57;;;5.03;;
15159;SDS011;7680;48.800;9.680;2023-06-26T15:09:43;5.35;;;4.85;;
15159;SDS011;7680;48.800;9.680;2023-06-26T15:12:17;4.80;;;4.40;;
15159;SDS011;7680;48.800;9.680;2023-06-26T15:14:50;5.30;;;4.88;;
15159;SDS011;7680;48.800;9.680;2023-06-26T15:17:23;4.80;;;4.38;;
15159;SDS011;7680;48.800;9.680;2023-06-26T15:19:56;4.70;;;4.30;;
15159;SDS011;7680;48.800;9.680;2023-06-26T15:22:31;4.93;;;4.30;;
15159;SDS011;7680;48.800;9.680;2023-06-26T15:25:06;4.47;;;4.07;;
15159;SDS011;7680;48.800;9.680;2023-06-26T15:27:39;4.50;;;4.10;;
15159;SDS011;7680;48.800;9.680;2023-06-26T15:30:12;4.35;;;3.95;;
15159;SDS011;7680;48.800;9.680;2023-06-26T15:32:46;4.88;;;4.28;;
15159;SDS011;7680;48.800;9.680;2023-06-26T15:35:21;7.40;;;4.60;;
15159;SDS011;7680;48.800;9.680;2023-06-26T15:37:55;4.50;;;4.10;;